Necedah, Wisconsin
Current Conditions -  °F | °C
As of 11:58 PM on Monday 20 Oct 2014 (Local Time) from KVOK Reporting Station
Overcast Overcast  
Wind Chill:   Ceiling: 4600
Heat Index:   Visibility: 10mi
Dew Point:   Wind: 3mph
Humidity: 100%   Direction: 30°NNE
Pressure: 30.06"   Gusts: NA
Location:  44.03°N, 90.07°W
Report Text: KVOK 210458Z AUTO 03003KT 10SM OVC046 05/05 A3006 RMK AO2 SLPNO T00470047
Loading
Personal Weather Stations






























Interactive Weather Map
Tropical Storm Tracking
New forecast layout! Learn more

10-Day Weather Forecast

Advertisements
Track Severe Weather on mobile